1864 Tropical Storm NOT_NAMED (1864283N18290)


IBTrACS version v04r00. Visit IBTrACS website for data access.
Please direct all questions to the IBTrACS Q and A forum

Storm track - Intensity - Wind Radii - Intensity Data - Source Data - All data

Summary Information

Storm ID 1864283N18290
Start Oct 8 12Z
Landfall Oct 8 18Z
Max Intensity 60 kt (Oct 12 12Z), 980 mb (Oct 12 12Z)
End Oct 14 12Z
ATCF IDs
Track status Best track data.

Storm track plot

Map of storm track

Intensity plots

Map of storm track

Radial wind information

No radial wind information for this storm


Position and Intensity Table

BASIN ISO_TIME_________ NATURE LAT LON MLC WIND MLC PRES
degrees north degrees east kts mb
NA 1864-10-08 12:00:00 TS 17.70 -70.20 35
NA 15:00:00 TS 18.09 -70.25 37
NA 18:00:00 TS 18.50 -70.30 40
NA 21:00:00 TS 18.95 -70.35 40
NA 1864-10-09 00:00:00 TS 19.40 -70.40 40
NA 03:00:00 TS 19.81 -70.45 40
NA 06:00:00 TS 20.20 -70.50 40
NA 09:00:00 TS 20.60 -70.59 40
NA 12:00:00 TS 21.00 -70.60 40
NA 15:00:00 TS 21.41 -70.40 42
NA 18:00:00 TS 21.80 -70.10 45
NA 21:00:00 TS 22.15 -69.95 45
NA 1864-10-10 00:00:00 TS 22.50 -69.60 45
NA 03:00:00 TS 22.90 -68.80 45
NA 06:00:00 TS 23.30 -67.80 45
NA 09:00:00 TS 23.53 -67.06 45
NA 12:00:00 TS 24.00 -66.00 45
NA 15:00:00 TS 25.04 -64.17 45
NA 18:00:00 TS 26.30 -62.00 45
NA 21:00:00 TS 27.47 -60.00 45
NA 1864-10-11 00:00:00 ET 28.50 -58.00 45
NA 03:00:00 ET 29.22 -55.99 45
NA 06:00:00 ET 29.80 -54.00 45
NA 09:00:00 ET 30.41 -51.97 45
NA 12:00:00 ET 31.00 -50.00 45
NA 15:00:00 ET 31.60 -48.18 45
NA 18:00:00 ET 32.20 -46.40 45
NA 21:00:00 ET 32.76 -44.55 47
NA 1864-10-12 00:00:00 ET 33.30 -42.70 50
NA 03:00:00 ET 33.85 -40.89 52
NA 06:00:00 ET 34.40 -39.10 55
NA 09:00:00 ET 34.98 -37.21 57
NA 12:00:00 ET 35.50 -35.50 60 980
NA 15:00:00 ET 35.88 -34.21 60
NA 18:00:00 ET 36.20 -33.10 60
NA 21:00:00 ET 36.51 -31.89 60
NA 1864-10-13 00:00:00 ET 36.80 -30.70 60
NA 03:00:00 ET 37.10 -29.55 60
NA 06:00:00 ET 37.40 -28.40 60
NA 09:00:00 ET 37.75 -27.10 60
NA 12:00:00 ET 38.00 -26.00 60
NA 15:00:00 ET 38.04 -25.39 57
NA 18:00:00 ET 38.00 -25.00 55
NA 21:00:00 ET 38.00 -24.50 52
NA 1864-10-14 00:00:00 ET 38.00 -24.00 50
NA 03:00:00 ET 38.00 -23.50 47
NA 06:00:00 ET 38.00 -23.00 45
NA 09:00:00 ET 38.00 -22.50 42
NA 12:00:00 ET 38.00 -22.00 40

Source Information

Agency Information
USA
TOKYO
CMA
HKO
NEWDELHI
REUNION
BOM
NADI
WELLINGTON
DS824
TD9636
TD9635
NEUMANN
MLC

All available IBTrACS Data

SEASON BASIN SUBBASIN ISO_TIME_________ NATURE LAT LON DIST2LAND LANDFALL IFLAG USA SSHS MLC LAT MLC LON MLC CLASS MLC WIND MLC PRES STORM SPEED STORM DIR
Year degrees north degrees east km km 1 degrees north degrees east kts mb kts degrees
1864 NA CS 1864-10-08 12:00:00 TS 17.70 -70.20 55 11 _____________O -1 17.70 -70.20 TS 35 8 354
1864 NA CS 15:00:00 TS 18.09 -70.25 11 0 _____________P -1 18.09 -70.25 TS 37 8 353
1864 NA NA 18:00:00 TS 18.50 -70.30 0 0 _____________O -1 18.50 -70.30 TS 40 9 354
1864 NA NA 21:00:00 TS 18.95 -70.35 0 0 _____________P -1 18.95 -70.35 TS 40 9 354
1864 NA NA 1864-10-09 00:00:00 TS 19.40 -70.40 0 0 _____________O -1 19.40 -70.40 TS 40 9 353
1864 NA NA 03:00:00 TS 19.81 -70.45 10 10 _____________P -1 19.81 -70.45 TS 40 8 353
1864 NA NA 06:00:00 TS 20.20 -70.50 45 45 _____________O -1 20.20 -70.50 TS 40 8 350
1864 NA NA 09:00:00 TS 20.60 -70.59 89 89 _____________P -1 20.60 -70.59 TS 40 8 353
1864 NA NA 12:00:00 TS 21.00 -70.60 134 134 _____________O -1 21.00 -70.60 TS 40 8 13
1864 NA NA 15:00:00 TS 21.41 -70.40 180 180 _____________P -1 21.41 -70.40 TS 42 9 30
1864 NA NA 18:00:00 TS 21.80 -70.10 229 229 _____________O -1 21.80 -70.10 TS 45 9 29
1864 NA NA 21:00:00 TS 22.15 -69.95 267 267 _____________P -1 22.15 -69.95 TS 45 8 33
1864 NA NA 1864-10-10 00:00:00 TS 22.50 -69.60 319 319 _____________O -1 22.50 -69.60 TS 45 13 55
1864 NA NA 03:00:00 TS 22.90 -68.80 389 389 _____________P -1 22.90 -68.80 TS 45 18 64
1864 NA NA 06:00:00 TS 23.30 -67.80 472 472 _____________O -1 23.30 -67.80 TS 45 17 68
1864 NA NA 09:00:00 TS 23.53 -67.06 521 521 _____________P -1 23.53 -67.06 TS 45 18 67
1864 NA NA 12:00:00 TS 24.00 -66.00 626 626 _____________O -1 24.00 -66.00 TS 45 30 60
1864 NA NA 15:00:00 TS 25.04 -64.17 751 751 _____________P -1 25.04 -64.17 TS 45 43 58
1864 NA NA 18:00:00 TS 26.30 -62.00 957 957 _____________O -1 26.30 -62.00 TS 45 45 57
1864 NA NA 21:00:00 TS 27.47 -60.00 1167 1167 _____________P -1 27.47 -60.00 TS 45 42 58
1864 NA NA 1864-10-11 00:00:00 ET 28.50 -58.00 1368 1368 _____________O -1 28.50 -58.00 EX 45 39 64
1864 NA NA 03:00:00 ET 29.22 -55.99 1550 1550 _____________P -1 29.22 -55.99 EX 45 37 70
1864 NA NA 06:00:00 ET 29.80 -54.00 1731 1731 _____________O -1 29.80 -54.00 EX 45 37 71
1864 NA NA 09:00:00 ET 30.41 -51.97 1806 1756 _____________P -1 30.41 -51.97 EX 45 37 71
1864 NA NA 12:00:00 ET 31.00 -50.00 1758 1721 _____________O -1 31.00 -50.00 EX 45 35 70
1864 NA NA 15:00:00 ET 31.60 -48.18 1723 1700 _____________P -1 31.60 -48.18 EX 45 33 69
1864 NA NA 18:00:00 ET 32.20 -46.40 1703 1696 _____________O -1 32.20 -46.40 EX 45 33 69
1864 NA NA 21:00:00 ET 32.76 -44.55 1703 1703 _____________P -1 32.76 -44.55 EX 47 33 71
1864 NA NA 1864-10-12 00:00:00 ET 33.30 -42.70 1724 1723 _____________O -1 33.30 -42.70 EX 50 32 70
1864 NA NA 03:00:00 ET 33.85 -40.89 1759 1755 _____________P -1 33.85 -40.89 EX 52 32 70
1864 NA NA 06:00:00 ET 34.40 -39.10 1798 1798 _____________O -1 34.40 -39.10 EX 55 32 70
1864 NA NA 09:00:00 ET 34.98 -37.21 1855 1855 _____________P -1 34.98 -37.21 EX 57 31 70
1864 NA NA 12:00:00 ET 35.50 -35.50 1919 1842 _____________O -1 35.50 -35.50 EX 60 980 26 70
1864 NA NA 15:00:00 ET 35.88 -34.21 1838 1770 _____________P -1 35.88 -34.21 EX 60 21 70
1864 NA NA 18:00:00 ET 36.20 -33.10 1762 1689 _____________O -1 36.20 -33.10 EX 60 20 72
1864 NA NA 21:00:00 ET 36.51 -31.89 1681 1613 _____________P -1 36.51 -31.89 EX 60 20 73
1864 NA NA 1864-10-13 00:00:00 ET 36.80 -30.70 1606 1544 _____________O -1 36.80 -30.70 EX 60 20 72
1864 NA NA 03:00:00 ET 37.10 -29.55 1536 1487 _____________P -1 37.10 -29.55 EX 60 19 72
1864 NA NA 06:00:00 ET 37.40 -28.40 1480 1424 _____________O -1 37.40 -28.40 EX 60 20 72
1864 NA NA 09:00:00 ET 37.75 -27.10 1418 1376 _____________P -1 37.75 -27.10 EX 60 20 72
1864 NA NA 12:00:00 ET 38.00 -26.00 1376 1343 _____________O -1 38.00 -26.00 EX 60 14 78
1864 NA NA 15:00:00 ET 38.04 -25.39 1343 1321 _____________P -1 38.04 -25.39 EX 57 8 90
1864 NA NA 18:00:00 ET 38.00 -25.00 1321 1295 _____________O -1 38.00 -25.00 EX 55 7 93
1864 NA NA 21:00:00 ET 38.00 -24.50 1295 1261 _____________P -1 38.00 -24.50 EX 52 8 90
1864 NA NA 1864-10-14 00:00:00 ET 38.00 -24.00 1261 1218 _____________O -1 38.00 -24.00 EX 50 8 90
1864 NA NA 03:00:00 ET 38.00 -23.50 1218 1175 _____________P -1 38.00 -23.50 EX 47 8 90
1864 NA NA 06:00:00 ET 38.00 -23.00 1175 1132 _____________O -1 38.00 -23.00 EX 45 8 90
1864 NA NA 09:00:00 ET 38.00 -22.50 1132 1089 _____________P -1 38.00 -22.50 EX 42 8 90
1864 NA NA 12:00:00 ET 38.00 -22.00 1089 _____________O -1 38.00 -22.00 EX 40 8 90